Time;durP1;ratioP1;P1;durP2;ratioP2;P2;SDS_P1;SDS_P2;PMS_P1;PMS_P2;Temp;Humidity;BMP_temperature;BMP_pressure;BME280_temperature;BME280_humidity;BME280_pressure;Samples;Min_cycle;Max_cycle;Signal;HPM_P1;HPM_P2
2021/04/15 09:44:36;;;;;;;1.10;0.40;;;11.70;86.50;;;;;;6097173;23;20266;-75
2021/04/15 09:47:13;;;;;;;3.97;0.70;;;12.10;86.40;;;;;;6098507;23;20507;-75
2021/04/15 09:49:54;;;;;;;2.03;0.63;;;12.30;86.30;;;;;;6098170;23;20206;-77
2021/04/15 09:52:44;;;;;;;0.63;0.40;;;12.20;86.80;;;;;;6098360;23;20214;-76
2021/04/15 09:55:23;;;;;;;1.40;0.83;;;12.00;81.60;;;;;;6085696;23;20184;-77
2021/04/15 09:57:56;;;;;;;1.47;0.67;;;11.90;85.20;;;;;;6097846;23;20215;-76
2021/04/15 10:00:28;;;;;;;2.13;0.70;;;12.00;87.10;;;;;;6097570;23;20503;-75
2021/04/15 10:03:07;;;;;;;1.10;0.67;;;11.90;89.30;;;;;;6098062;23;20188;-76
2021/04/15 10:05:46;;;;;;;0.90;0.70;;;11.90;89.50;;;;;;6099097;23;20191;-71
2021/04/15 10:08:24;;;;;;;1.13;0.60;;;12.10;87.50;;;;;;6099623;23;20672;-76
2021/04/15 10:11:00;;;;;;;2.33;0.80;;;12.20;88.70;;;;;;6098874;23;20572;-76
2021/04/15 10:13:31;;;;;;;2.07;0.70;;;12.10;89.50;;;;;;6097672;23;20219;-72
2021/04/15 10:16:06;;;;;;;1.30;0.70;;;11.40;90.50;;;;;;6098345;23;20191;-75
2021/04/15 10:18:52;;;;;;;3.50;0.70;;;11.70;88.20;;;;;;6099006;23;20487;-75
2021/04/15 10:21:29;;;;;;;2.10;0.60;;;11.90;87.30;;;;;;6099257;23;20183;-73
2021/04/15 10:24:21;;;;;;;1.27;0.60;;;12.00;86.00;;;;;;6098387;23;20199;-71
2021/04/15 10:27:25;;;;;;;1.23;0.60;;;11.60;86.60;;;;;;6099650;23;20811;-72
2021/04/15 10:30:17;;;;;;;0.73;0.60;;;11.60;88.30;;;;;;6098451;23;20650;-72
2021/04/15 10:33:02;;;;;;;1.33;0.60;;;11.10;89.70;;;;;;6097579;23;20214;-74
2021/04/15 10:35:53;;;;;;;4.43;0.70;;;11.10;90.60;;;;;;6097185;23;20183;-74
2021/04/15 10:38:52;;;;;;;2.83;0.80;;;11.40;90.80;;;;;;6097548;23;20481;-74
2021/04/15 10:41:52;;;;;;;1.63;0.80;;;11.10;90.40;;;;;;6097508;23;20183;-72
2021/04/15 10:44:57;;;;;;;1.67;0.80;;;10.80;90.60;;;;;;6097090;23;20226;-71
2021/04/15 10:47:38;;;;;;;1.53;0.67;;;11.10;90.90;;;;;;6076575;23;20187;-72
2021/04/15 10:50:19;;;;;;;1.13;0.70;;;11.00;91.00;;;;;;6097779;23;20508;-72
2021/04/15 10:52:56;;;;;;;2.30;0.60;;;10.80;91.60;;;;;;6097466;23;20207;-74
2021/04/15 10:55:26;;;;;;;1.63;0.90;;;11.10;90.70;;;;;;6098601;23;20235;-74
2021/04/15 10:57:54;;;;;;;0.73;0.50;;;11.40;90.50;;;;;;6099383;23;20186;-71
2021/04/15 11:00:28;;;;;;;0.70;0.50;;;11.50;89.20;;;;;;6097630;23;20204;-72
2021/04/15 11:02:56;;;;;;;1.13;0.43;;;11.50;90.30;;;;;;6098270;23;20183;-71
2021/04/15 11:05:27;;;;;;;2.20;0.83;;;11.80;86.20;;;;;;6097951;23;20179;-70
2021/04/15 11:08:04;;;;;;;1.27;0.73;;;11.80;88.10;;;;;;6098031;23;20187;-71
2021/04/15 11:10:32;;;;;;;2.27;1.27;;;12.30;88.60;;;;;;6097264;23;20724;-71
2021/04/15 11:13:12;;;;;;;3.00;1.30;;;12.20;90.60;;;;;;6097722;23;20207;-72
2021/04/15 11:15:42;;;;;;;4.73;1.50;;;12.50;91.70;;;;;;6096945;23;20190;-72
2021/04/15 11:18:10;;;;;;;1.93;1.00;;;12.70;90.60;;;;;;6097360;23;20180;-71
2021/04/15 11:20:41;;;;;;;2.47;1.03;;;13.00;89.60;;;;;;6097351;23;20214;-70
2021/04/15 11:23:27;;;;;;;1.97;0.93;;;12.90;91.10;;;;;;6097290;23;20179;-70
2021/04/15 11:26:09;;;;;;;1.30;1.00;;;13.20;90.70;;;;;;6097407;23;20504;-72
2021/04/15 11:28:35;;;;;;;3.47;0.90;;;13.50;89.60;;;;;;6096778;23;20179;-70
2021/04/15 11:31:19;;;;;;;1.30;0.70;;;13.50;84.90;;;;;;6097262;23;20183;-69
2021/04/15 11:33:47;;;;;;;0.80;0.60;;;12.80;83.20;;;;;;6096781;23;20215;-70
2021/04/15 11:36:17;;;;;;;0.90;0.70;;;12.60;83.60;;;;;;6096973;23;20646;-70
2021/04/15 11:38:46;;;;;;;1.10;0.70;;;12.60;82.70;;;;;;6096600;23;20575;-72
2021/04/15 11:41:16;;;;;;;1.57;0.70;;;12.60;83.90;;;;;;6096792;23;20231;-70
2021/04/15 11:43:43;;;;;;;1.20;0.70;;;12.00;87.40;;;;;;6096744;23;20191;-71
2021/04/15 11:46:19;;;;;;;2.30;0.80;;;11.60;88.70;;;;;;6097088;23;20195;-71
2021/04/15 11:49:01;;;;;;;4.20;0.80;;;10.60;90.00;;;;;;6097214;23;20190;-69
2021/04/15 11:51:34;;;;;;;1.50;0.60;;;10.30;91.20;;;;;;6097314;23;20187;-70
2021/04/15 11:54:01;;;;;;;0.93;0.67;;;10.20;91.90;;;;;;6097267;23;20234;-70
2021/04/15 11:56:32;;;;;;;1.83;0.60;;;9.90;93.00;;;;;;6097246;23;20179;-71
2021/04/15 11:59:15;;;;;;;1.43;0.80;;;9.60;93.90;;;;;;6097234;23;20199;-70
2021/04/15 12:01:42;;;;;;;2.63;0.70;;;9.30;94.50;;;;;;6097541;23;20188;-70
2021/04/15 12:04:15;;;;;;;1.87;0.80;;;9.30;94.70;;;;;;6097271;23;20184;-72
2021/04/15 12:06:47;;;;;;;0.70;0.60;;;9.40;95.10;;;;;;6097340;23;20186;-71
2021/04/15 12:09:18;;;;;;;1.63;0.60;;;9.50;94.30;;;;;;6097250;23;20211;-71
2021/04/15 12:11:54;;;;;;;2.20;1.03;;;9.50;94.60;;;;;;6097095;23;20198;-70
2021/04/15 12:14:21;;;;;;;1.57;0.77;;;9.70;94.40;;;;;;6097108;23;20230;-72
2021/04/15 12:20:13;;;;;;;1.03;0.70;;;10.60;92.60;;;;;;6096758;23;20208;-71
2021/04/15 12:22:50;;;;;;;2.73;0.70;;;10.80;91.40;;;;;;6096835;23;20184;-71
2021/04/15 12:25:21;;;;;;;1.40;0.73;;;10.90;90.10;;;;;;6096668;23;20211;-70
2021/04/15 12:27:49;;;;;;;1.10;0.80;;;10.80;90.40;;;;;;6097388;23;20180;-70
2021/04/15 12:30:20;;;;;;;1.63;0.70;;;11.20;90.80;;;;;;6092200;23;20204;-78
2021/04/15 12:32:54;;;;;;;0.83;0.70;;;11.40;90.30;;;;;;6092824;23;20214;-72
2021/04/15 12:35:27;;;;;;;3.10;0.70;;;11.70;89.60;;;;;;6096261;23;20576;-70
2021/04/15 12:38:01;;;;;;;1.37;0.60;;;12.20;88.60;;;;;;6096255;23;20262;-73
2021/04/15 12:40:33;;;;;;;0.83;0.60;;;12.20;86.20;;;;;;6096319;23;20694;-73
2021/04/15 12:43:03;;;;;;;3.37;0.80;;;12.30;86.60;;;;;;6096474;23;20187;-73
2021/04/15 12:45:36;;;;;;;1.73;0.60;;;12.00;85.40;;;;;;6095893;23;20186;-73
2021/04/15 12:48:05;;;;;;;2.00;0.80;;;12.10;83.80;;;;;;6096246;23;20729;-73
2021/04/15 12:50:33;;;;;;;1.53;0.60;;;11.60;84.10;;;;;;6096500;23;20199;-73
2021/04/15 12:53:00;;;;;;;2.73;0.77;;;11.50;87.30;;;;;;6095721;23;20708;-73
2021/04/15 12:55:28;;;;;;;2.20;0.80;;;11.80;85.00;;;;;;6096853;23;20184;-76
2021/04/15 12:57:56;;;;;;;1.10;0.80;;;11.90;85.10;;;;;;6095643;23;20246;-75
2021/04/15 13:00:35;;;;;;;3.53;0.70;;;11.50;83.40;;;;;;6094024;23;20709;-75
2021/04/15 13:03:19;;;;;;;0.80;0.60;;;11.70;87.20;;;;;;6095640;23;20179;-73
2021/04/15 13:05:59;;;;;;;1.50;0.70;;;11.80;86.50;;;;;;6094996;23;20230;-72
2021/04/15 13:08:37;;;;;;;2.30;0.77;;;11.50;84.00;;;;;;6095836;23;20179;-72
2021/04/15 13:11:08;;;;;;;2.10;0.83;;;11.20;83.90;;;;;;6095762;23;20180;-73
2021/04/15 13:13:41;;;;;;;2.40;0.70;;;11.10;84.70;;;;;;6093657;23;20211;-75
2021/04/15 13:16:39;;;;;;;2.07;0.90;;;11.10;84.90;;;;;;6095261;23;20622;-74
2021/04/15 13:19:38;;;;;;;1.10;0.60;;;11.30;84.40;;;;;;6095826;23;20210;-72
2021/04/15 13:22:11;;;;;;;2.03;0.60;;;11.50;85.00;;;;;;6096031;23;20187;-72
2021/04/15 13:25:18;;;;;;;1.50;0.53;;;11.40;86.20;;;;;;6096615;23;20643;-73
2021/04/15 13:28:00;;;;;;;0.90;0.60;;;11.50;86.50;;;;;;6096487;23;20211;-73
2021/04/15 13:30:31;;;;;;;1.30;0.70;;;11.70;86.60;;;;;;6095747;23;20682;-74
2021/04/15 13:33:06;;;;;;;0.70;0.50;;;11.90;85.80;;;;;;6096237;23;20207;-74
2021/04/15 13:35:41;;;;;;;1.50;0.87;;;11.70;83.80;;;;;;6096610;23;20183;-74
2021/04/15 13:38:42;;;;;;;1.00;0.70;;;11.80;83.20;;;;;;6097077;23;20182;-74
2021/04/15 13:41:11;;;;;;;1.10;0.60;;;11.90;84.40;;;;;;6096380;23;20179;-75
2021/04/15 13:43:45;;;;;;;0.70;0.70;;;11.50;84.30;;;;;;6095424;23;20318;-74
2021/04/15 13:46:31;;;;;;;0.53;0.50;;;10.90;84.70;;;;;;6096212;23;20214;-75
2021/04/15 13:49:00;;;;;;;3.37;0.90;;;10.80;84.90;;;;;;6096276;23;20750;-74
2021/04/15 13:51:27;;;;;;;1.37;0.70;;;10.80;85.80;;;;;;6096254;23;20210;-73
2021/04/15 13:54:31;;;;;;;2.60;0.77;;;10.40;89.60;;;;;;6096812;23;20218;-75
2021/04/15 13:57:17;;;;;;;1.93;0.90;;;10.40;90.30;;;;;;6097291;23;20227;-73
2021/04/15 13:59:56;;;;;;;0.73;0.60;;;10.40;90.50;;;;;;6096948;23;20214;-75
2021/04/15 14:02:50;;;;;;;2.20;1.00;;;10.60;90.00;;;;;;6098598;23;20187;-76
2021/04/15 14:05:43;;;;;;;1.10;0.80;;;10.70;89.00;;;;;;6099952;23;20183;-76
2021/04/15 14:08:33;;;;;;;1.27;0.80;;;10.80;89.20;;;;;;6099250;23;20188;-74
2021/04/15 14:11:37;;;;;;;2.93;0.90;;;10.90;88.20;;;;;;6091984;23;20737;-74
2021/04/15 14:14:08;;;;;;;2.93;0.73;;;11.00;90.00;;;;;;6095795;23;20298;-73
2021/04/15 14:16:38;;;;;;;2.30;0.87;;;10.80;88.00;;;;;;6096606;23;20191;-74
2021/04/15 14:19:17;;;;;;;1.20;0.60;;;10.90;87.20;;;;;;6096034;23;20204;-74
2021/04/15 14:21:49;;;;;;;2.63;0.70;;;11.10;85.60;;;;;;6095274;23;20203;-75
2021/04/15 14:24:26;;;;;;;1.47;0.90;;;11.10;84.50;;;;;;6096096;23;20278;-72
2021/04/15 14:26:53;;;;;;;1.53;0.80;;;11.20;81.70;;;;;;6095983;23;20223;-72
2021/04/15 14:29:28;;;;;;;1.70;0.77;;;11.30;83.20;;;;;;6094995;23;20674;-72
2021/04/15 14:31:56;;;;;;;1.20;0.60;;;11.60;80.50;;;;;;6095851;23;20328;-72
2021/04/15 14:34:28;;;;;;;0.87;0.60;;;11.80;79.80;;;;;;6095725;23;20504;-72
2021/04/15 14:36:57;;;;;;;2.30;0.97;;;12.00;80.80;;;;;;6096225;23;20184;-73
2021/04/15 14:39:28;;;;;;;2.20;0.90;;;11.90;80.80;;;;;;6095700;23;20199;-72
2021/04/15 14:41:57;;;;;;;1.17;0.60;;;11.70;81.00;;;;;;6094893;23;20186;-73
2021/04/15 14:44:26;;;;;;;2.97;0.80;;;11.50;81.90;;;;;;6095328;23;20527;-72
2021/04/15 14:46:52;;;;;;;1.87;0.77;;;11.30;82.80;;;;;;6096220;23;20184;-74
2021/04/15 14:49:26;;;;;;;1.00;0.60;;;11.10;84.60;;;;;;6097002;23;20204;-73
2021/04/15 14:52:10;;;;;;;1.23;0.70;;;10.90;83.20;;;;;;6097381;23;20184;-73
2021/04/15 14:54:38;;;;;;;2.63;0.63;;;10.90;84.00;;;;;;6096966;23;20187;-74
2021/04/15 14:57:06;;;;;;;1.43;0.80;;;10.90;84.10;;;;;;6097282;23;20186;-74
2021/04/15 14:59:36;;;;;;;2.70;0.73;;;10.90;83.10;;;;;;6097252;23;20199;-73
2021/04/15 15:02:12;;;;;;;2.10;0.67;;;10.90;82.20;;;;;;6097306;23;20188;-73
2021/04/15 15:04:38;;;;;;;2.40;0.80;;;11.10;82.80;;;;;;6097425;23;20179;-72
2021/04/15 15:07:04;;;;;;;1.20;0.70;;;11.20;82.20;;;;;;6097256;23;20560;-72
2021/04/15 15:09:33;;;;;;;1.00;0.60;;;11.00;82.90;;;;;;6096938;23;20259;-73
2021/04/15 15:12:03;;;;;;;0.87;0.60;;;11.20;82.30;;;;;;6097493;23;20184;-74
2021/04/15 15:14:33;;;;;;;1.93;0.60;;;11.50;81.80;;;;;;6096834;23;20658;-72
2021/04/15 15:17:04;;;;;;;4.63;0.80;;;11.60;81.00;;;;;;6097426;23;20180;-73
2021/04/15 15:19:34;;;;;;;1.63;0.60;;;11.50;80.60;;;;;;6097527;23;20203;-73
2021/04/15 15:22:03;;;;;;;1.90;0.80;;;11.60;79.00;;;;;;6097140;23;20202;-72
2021/04/15 15:24:33;;;;;;;1.70;0.60;;;11.40;79.00;;;;;;6097446;23;20186;-73
2021/04/15 15:27:11;;;;;;;2.00;0.80;;;11.30;81.00;;;;;;6096994;23;20214;-72
2021/04/15 15:29:38;;;;;;;1.37;0.83;;;11.10;80.40;;;;;;6096526;23;20257;-73
2021/04/15 15:32:23;;;;;;;2.93;0.80;;;11.10;80.90;;;;;;6097055;23;20515;-73
2021/04/15 15:34:56;;;;;;;2.80;0.87;;;11.10;80.80;;;;;;6097010;23;20184;-73
2021/04/15 15:37:29;;;;;;;0.70;0.60;;;11.10;81.40;;;;;;6097123;23;20289;-74
2021/04/15 15:39:55;;;;;;;0.63;0.53;;;10.90;82.20;;;;;;6097795;23;20258;-74
2021/04/15 15:43:00;;;;;;;1.57;0.80;;;11.00;83.50;;;;;;6096615;23;20195;-75
2021/04/15 15:45:35;;;;;;;0.60;0.60;;;10.80;84.00;;;;;;6096614;23;20216;-75
2021/04/15 15:48:03;;;;;;;0.90;0.80;;;10.60;85.50;;;;;;6097235;23;20179;-72
2021/04/15 15:50:31;;;;;;;2.17;0.60;;;10.60;87.10;;;;;;6097186;23;20203;-72
2021/04/15 15:53:17;;;;;;;0.83;0.67;;;10.30;89.30;;;;;;6096833;23;20270;-74
2021/04/15 15:55:43;;;;;;;1.40;0.80;;;10.20;89.90;;;;;;6096796;23;20238;-75
2021/04/15 15:58:10;;;;;;;3.30;0.87;;;10.30;90.40;;;;;;6097023;23;20180;-74
2021/04/15 16:00:37;;;;;;;2.23;0.80;;;10.20;90.20;;;;;;6097222;23;20274;-74
2021/04/15 16:03:15;;;;;;;1.70;0.90;;;10.30;90.10;;;;;;6097027;23;20179;-73
2021/04/15 16:05:42;;;;;;;1.07;0.70;;;10.20;90.10;;;;;;6097654;23;20661;-73
2021/04/15 16:08:12;;;;;;;1.33;0.60;;;9.90;90.90;;;;;;6098954;23;20186;-75
2021/04/15 16:10:41;;;;;;;4.30;0.70;;;10.00;90.70;;;;;;6099071;23;20199;-76
2021/04/15 16:13:12;;;;;;;1.43;0.70;;;10.10;89.70;;;;;;6098742;23;20239;-73
2021/04/15 16:15:42;;;;;;;1.23;0.60;;;10.00;88.40;;;;;;6098826;23;20187;-73
2021/04/15 16:18:14;;;;;;;0.70;0.50;;;10.20;86.70;;;;;;6098731;23;20183;-75
2021/04/15 16:20:43;;;;;;;1.33;0.50;;;10.20;86.50;;;;;;6099285;23;20258;-74
2021/04/15 16:23:11;;;;;;;1.27;0.57;;;9.90;87.90;;;;;;6099060;23;20191;-74
2021/04/15 16:25:37;;;;;;;1.87;0.50;;;9.90;88.00;;;;;;6099023;23;20183;-73
2021/04/15 16:28:04;;;;;;;2.73;0.60;;;9.80;87.30;;;;;;6098830;23;20194;-72
2021/04/15 16:30:32;;;;;;;1.53;0.60;;;9.90;87.60;;;;;;6098972;23;20204;-73
2021/04/15 16:32:58;;;;;;;0.80;0.60;;;9.70;88.10;;;;;;6098792;23;20219;-73
2021/04/15 16:35:26;;;;;;;1.90;0.70;;;9.80;88.50;;;;;;6098607;23;20186;-74
2021/04/15 16:37:59;;;;;;;0.90;0.60;;;9.80;87.70;;;;;;6098830;23;20183;-75
2021/04/15 16:40:26;;;;;;;0.80;0.80;;;9.70;87.20;;;;;;6098638;23;20231;-73
2021/04/15 16:42:53;;;;;;;2.47;0.63;;;9.80;87.20;;;;;;6098198;23;20639;-72
2021/04/15 16:45:21;;;;;;;0.50;0.50;;;9.80;88.10;;;;;;6098571;23;20267;-72
2021/04/15 16:47:49;;;;;;;0.80;0.70;;;10.00;86.70;;;;;;6098344;23;20190;-74
2021/04/15 16:50:18;;;;;;;0.83;0.50;;;10.10;87.20;;;;;;6098193;23;20207;-73
2021/04/15 16:52:46;;;;;;;1.97;0.70;;;10.10;85.80;;;;;;6098650;23;20203;-74
2021/04/15 16:55:14;;;;;;;1.23;0.50;;;10.20;85.20;;;;;;6099786;23;20184;-72
2021/04/15 16:57:41;;;;;;;1.70;0.67;;;10.20;82.40;;;;;;6098745;23;20214;-72
2021/04/15 17:00:13;;;;;;;1.67;0.50;;;10.30;82.30;;;;;;6098403;23;20200;-72
2021/04/15 17:02:39;;;;;;;0.60;0.53;;;10.50;82.50;;;;;;6098464;23;20180;-73
2021/04/15 17:05:07;;;;;;;0.80;0.50;;;10.50;82.70;;;;;;6098434;23;20195;-72
2021/04/15 17:07:34;;;;;;;0.80;0.67;;;10.40;84.00;;;;;;6098407;23;20516;-72
2021/04/15 17:10:01;;;;;;;0.73;0.53;;;10.40;85.50;;;;;;6101817;23;20532;-73
2021/04/15 17:12:27;;;;;;;2.93;0.90;;;10.30;87.40;;;;;;6100420;23;20258;-73
2021/04/15 17:14:53;;;;;;;1.97;0.77;;;10.50;88.70;;;;;;6099044;23;20551;-72
2021/04/15 17:17:20;;;;;;;0.93;0.70;;;10.50;88.80;;;;;;6098227;23;20239;-72
2021/04/15 17:19:46;;;;;;;2.67;0.90;;;10.10;88.90;;;;;;6098318;23;20204;-72
2021/04/15 17:22:12;;;;;;;1.13;0.70;;;9.80;90.40;;;;;;6098473;23;20241;-72
2021/04/15 17:24:39;;;;;;;2.00;0.80;;;9.90;90.50;;;;;;6098600;23;20179;-72
2021/04/15 17:27:07;;;;;;;1.30;0.60;;;9.90;90.70;;;;;;6098654;23;20191;-71
2021/04/15 17:29:34;;;;;;;1.40;0.90;;;9.90;90.50;;;;;;6098214;23;20258;-72
2021/04/15 17:32:00;;;;;;;1.13;0.90;;;10.00;89.80;;;;;;6098162;23;20512;-72
2021/04/15 17:34:27;;;;;;;1.73;0.90;;;9.90;91.10;;;;;;6097740;23;20670;-71
2021/04/15 17:36:53;;;;;;;1.07;0.83;;;9.80;91.00;;;;;;6097876;23;20653;-71
2021/04/15 17:39:20;;;;;;;1.47;0.90;;;9.60;91.10;;;;;;6097942;23;20666;-72
2021/04/15 17:41:46;;;;;;;1.80;0.73;;;9.50;91.10;;;;;;6098316;23;20179;-71
2021/04/15 17:44:14;;;;;;;3.90;0.90;;;9.30;91.30;;;;;;6097756;23;20198;-72
2021/04/15 17:46:41;;;;;;;1.10;0.90;;;9.20;91.50;;;;;;6098325;23;20507;-71
2021/04/15 17:49:08;;;;;;;2.50;0.70;;;9.30;91.80;;;;;;6098193;23;20204;-70
2021/04/15 17:51:35;;;;;;;1.43;1.10;;;9.30;91.70;;;;;;6098246;23;20247;-71
2021/04/15 17:54:01;;;;;;;5.80;0.93;;;9.20;91.90;;;;;;6098121;23;20227;-71
2021/04/15 17:56:31;;;;;;;1.30;0.90;;;9.30;91.80;;;;;;6098120;23;20191;-72
2021/04/15 17:58:59;;;;;;;2.23;1.00;;;9.30;91.70;;;;;;6097996;23;20209;-73
2021/04/15 18:01:28;;;;;;;1.33;1.03;;;9.50;91.50;;;;;;6097680;23;20186;-71
2021/04/15 18:03:54;;;;;;;1.40;0.80;;;9.50;91.20;;;;;;6097349;23;20698;-71
2021/04/15 18:06:23;;;;;;;1.67;1.00;;;9.60;91.00;;;;;;6097729;23;20631;-71
2021/04/15 18:08:52;;;;;;;1.90;1.03;;;9.50;91.10;;;;;;6097955;23;20184;-71
2021/04/15 18:11:21;;;;;;;1.50;0.80;;;9.60;91.00;;;;;;6098092;23;20187;-72
2021/04/15 18:13:48;;;;;;;2.87;1.27;;;9.70;91.10;;;;;;6098023;23;20219;-71
2021/04/15 18:16:15;;;;;;;1.80;1.00;;;9.70;91.20;;;;;;6097993;23;20250;-72
2021/04/15 18:18:43;;;;;;;1.83;0.97;;;9.70;91.60;;;;;;6097880;23;20267;-72
2021/04/15 18:21:11;;;;;;;2.60;1.00;;;9.70;91.40;;;;;;6097995;23;20293;-72
2021/04/15 18:23:37;;;;;;;1.73;1.00;;;9.60;91.30;;;;;;6098005;23;20184;-72
2021/04/15 18:26:05;;;;;;;2.73;1.10;;;9.50;91.00;;;;;;6097756;23;20187;-73
2021/04/15 18:28:31;;;;;;;2.50;1.17;;;9.20;91.70;;;;;;6097702;23;20183;-71
2021/04/15 18:31:02;;;;;;;2.27;1.27;;;9.10;91.90;;;;;;6097724;23;20206;-71
2021/04/15 18:33:32;;;;;;;6.07;1.10;;;9.00;92.10;;;;;;6097244;23;20298;-72
2021/04/15 18:36:01;;;;;;;2.67;1.23;;;8.90;92.40;;;;;;6097401;23;20511;-71
2021/04/15 18:38:29;;;;;;;1.67;1.20;;;8.90;92.40;;;;;;6097670;23;20183;-71
2021/04/15 18:40:58;;;;;;;2.47;1.20;;;9.00;92.50;;;;;;6097568;23;20216;-72
2021/04/15 18:43:27;;;;;;;1.63;1.30;;;8.90;93.60;;;;;;6097148;23;20654;-71
2021/04/15 18:45:54;;;;;;;2.60;1.30;;;8.80;94.50;;;;;;6097282;23;20627;-72
2021/04/15 18:48:22;;;;;;;3.70;1.40;;;8.70;94.90;;;;;;6097803;23;20491;-71
2021/04/15 18:50:50;;;;;;;3.03;1.33;;;8.70;95.20;;;;;;6097516;23;20219;-71
2021/04/15 18:53:18;;;;;;;3.13;1.30;;;8.60;95.80;;;;;;6097540;23;20214;-72
2021/04/15 18:55:44;;;;;;;4.87;1.80;;;8.50;96.30;;;;;;6097560;23;20179;-71
2021/04/15 18:58:13;;;;;;;2.27;1.37;;;8.30;96.80;;;;;;6096861;23;20485;-71
2021/04/15 19:00:42;;;;;;;1.50;1.10;;;8.20;97.30;;;;;;6097218;23;20523;-71
2021/04/15 19:03:09;;;;;;;5.87;1.60;;;8.20;97.70;;;;;;6097230;23;20276;-74
2021/04/15 19:05:36;;;;;;;3.47;1.27;;;7.90;98.40;;;;;;6097449;23;20183;-74
2021/04/15 19:08:03;;;;;;;2.83;1.33;;;7.80;99.10;;;;;;6097675;23;20184;-75
2021/04/15 19:10:35;;;;;;;2.13;1.07;;;7.80;99.30;;;;;;6097243;23;20523;-71
2021/04/15 19:13:02;;;;;;;3.33;1.50;;;7.70;99.90;;;;;;6097068;23;20535;-72
2021/04/15 19:15:28;;;;;;;4.63;1.30;;;7.60;99.80;;;;;;6097407;23;20183;-71
2021/04/15 19:17:55;;;;;;;6.50;1.30;;;7.60;99.90;;;;;;6097181;23;20698;-72
2021/04/15 19:20:22;;;;;;;2.07;1.20;;;7.40;99.90;;;;;;6097009;23;20204;-72
2021/04/15 19:22:52;;;;;;;2.40;1.20;;;7.40;99.90;;;;;;6097222;23;20183;-72
2021/04/15 19:25:20;;;;;;;2.87;1.50;;;7.40;99.90;;;;;;6097312;23;20184;-72
2021/04/15 19:27:47;;;;;;;3.57;1.27;;;7.30;99.90;;;;;;6097047;23;20723;-72
2021/04/15 19:30:15;;;;;;;2.57;1.37;;;7.20;99.90;;;;;;6097216;23;20199;-72
2021/04/15 19:32:41;;;;;;;3.47;1.50;;;7.10;99.90;;;;;;6096772;23;20500;-72
2021/04/15 19:35:09;;;;;;;3.67;1.40;;;7.00;99.90;;;;;;6097137;23;20179;-72
2021/04/15 19:37:35;;;;;;;5.30;2.30;;;6.90;99.90;;;;;;6097049;23;20207;-74
2021/04/15 19:40:01;;;;;;;3.83;1.60;;;6.80;99.90;;;;;;6096989;23;20203;-72
2021/04/15 19:42:28;;;;;;;6.87;1.80;;;6.70;99.90;;;;;;6097200;23;20519;-71
2021/04/15 19:44:55;;;;;;;4.63;1.83;;;6.70;99.90;;;;;;6096997;23;20188;-72
2021/04/15 19:47:21;;;;;;;2.33;1.50;;;6.60;99.90;;;;;;6097054;23;20183;-72
2021/04/15 19:49:48;;;;;;;3.00;1.67;;;6.50;99.90;;;;;;6096908;23;20245;-72
2021/04/15 19:52:14;;;;;;;2.83;1.60;;;6.50;99.90;;;;;;6097001;23;20179;-70
2021/04/15 19:54:40;;;;;;;4.90;1.90;;;6.50;99.90;;;;;;6096591;23;20208;-71
2021/04/15 19:57:07;;;;;;;3.10;1.73;;;6.40;99.90;;;;;;6096801;23;20187;-71
2021/04/15 19:59:34;;;;;;;3.13;1.60;;;6.40;99.90;;;;;;6096799;23;20200;-71
2021/04/15 20:02:01;;;;;;;3.83;1.70;;;6.30;99.90;;;;;;6096876;23;20207;-74
2021/04/15 20:04:27;;;;;;;2.63;1.50;;;6.30;99.90;;;;;;6096911;23;20185;-72
2021/04/15 20:06:54;;;;;;;2.33;1.40;;;6.20;99.90;;;;;;6097248;23;20180;-75
2021/04/15 20:09:20;;;;;;;3.43;1.70;;;6.10;99.90;;;;;;6097328;23;20210;-72
2021/04/15 20:11:46;;;;;;;3.77;2.10;;;6.10;99.90;;;;;;6096902;23;20186;-72
2021/04/15 20:14:13;;;;;;;3.63;1.73;;;6.10;99.90;;;;;;6096431;23;20218;-72
2021/04/15 20:16:40;;;;;;;3.20;1.80;;;6.20;99.90;;;;;;6097169;23;20186;-71
2021/04/15 20:19:09;;;;;;;4.20;2.17;;;6.10;99.90;;;;;;6097138;23;20203;-72
2021/04/15 20:21:35;;;;;;;2.83;1.80;;;5.90;99.90;;;;;;6097021;23;20258;-72
2021/04/15 20:24:05;;;;;;;2.50;1.80;;;5.80;99.90;;;;;;6097122;23;20190;-71
2021/04/15 20:26:32;;;;;;;5.37;2.00;;;5.80;99.90;;;;;;6096640;23;20184;-74
2021/04/15 20:28:58;;;;;;;4.37;2.43;;;5.70;99.90;;;;;;6096552;23;20528;-72
2021/04/15 20:31:25;;;;;;;5.80;2.30;;;5.60;99.90;;;;;;6096850;23;20230;-72
2021/04/15 20:33:51;;;;;;;3.90;2.00;;;5.50;99.90;;;;;;6096648;23;20211;-73
2021/04/15 20:36:20;;;;;;;3.70;1.83;;;5.50;99.90;;;;;;6097048;23;20179;-71
2021/04/15 20:38:47;;;;;;;4.93;2.20;;;5.40;99.90;;;;;;6097003;23;20183;-71
2021/04/15 20:41:14;;;;;;;4.37;1.90;;;5.40;99.90;;;;;;6097044;23;20180;-72
2021/04/15 20:43:41;;;;;;;2.87;1.87;;;5.30;99.90;;;;;;6096552;23;20243;-72
2021/04/15 20:46:07;;;;;;;3.53;2.20;;;5.20;99.90;;;;;;6089847;23;20222;-73
